sensor_id;sensor_type;location;lat;lon;timestamp;temperature;humidity
34873;DHT22;21084;51.098;14.506;2024-03-06T00:00:18;0.90;99.90
34873;DHT22;21084;51.098;14.506;2024-03-06T00:02:46;0.90;99.90
34873;DHT22;21084;51.098;14.506;2024-03-06T00:05:15;1.00;99.90
34873;DHT22;21084;51.098;14.506;2024-03-06T00:07:43;1.20;99.90
34873;DHT22;21084;51.098;14.506;2024-03-06T00:10:11;1.30;99.90
34873;DHT22;21084;51.098;14.506;2024-03-06T00:12:39;1.40;99.90
34873;DHT22;21084;51.098;14.506;2024-03-06T00:15:08;1.50;99.90
34873;DHT22;21084;51.098;14.506;2024-03-06T00:17:38;1.50;99.90
34873;DHT22;21084;51.098;14.506;2024-03-06T00:20:06;1.60;99.90
34873;DHT22;21084;51.098;14.506;2024-03-06T00:22:36;1.70;99.90
34873;DHT22;21084;51.098;14.506;2024-03-06T00:25:04;1.70;99.90
34873;DHT22;21084;51.098;14.506;2024-03-06T00:27:33;1.80;99.90
34873;DHT22;21084;51.098;14.506;2024-03-06T00:30:01;1.90;99.90
34873;DHT22;21084;51.098;14.506;2024-03-06T00:32:30;1.90;99.90
34873;DHT22;21084;51.098;14.506;2024-03-06T00:35:00;1.90;99.90
34873;DHT22;21084;51.098;14.506;2024-03-06T00:37:28;1.90;99.90
34873;DHT22;21084;51.098;14.506;2024-03-06T00:39:59;2.00;99.90
34873;DHT22;21084;51.098;14.506;2024-03-06T00:42:27;2.00;99.90
34873;DHT22;21084;51.098;14.506;2024-03-06T00:44:55;2.00;99.90
34873;DHT22;21084;51.098;14.506;2024-03-06T00:47:24;2.00;99.90
34873;DHT22;21084;51.098;14.506;2024-03-06T00:49:53;2.00;99.90
34873;DHT22;21084;51.098;14.506;2024-03-06T00:52:22;2.00;99.90
34873;DHT22;21084;51.098;14.506;2024-03-06T00:54:50;1.90;99.90
34873;DHT22;21084;51.098;14.506;2024-03-06T00:57:19;1.80;99.90
34873;DHT22;21084;51.098;14.506;2024-03-06T00:59:47;1.80;99.90
34873;DHT22;21084;51.098;14.506;2024-03-06T01:02:15;1.80;99.90
34873;DHT22;21084;51.098;14.506;2024-03-06T01:04:43;1.80;99.90
34873;DHT22;21084;51.098;14.506;2024-03-06T01:07:12;1.80;99.90
34873;DHT22;21084;51.098;14.506;2024-03-06T01:09:42;1.70;99.90
34873;DHT22;21084;51.098;14.506;2024-03-06T01:12:10;1.70;99.90
34873;DHT22;21084;51.098;14.506;2024-03-06T01:14:38;1.70;99.90
34873;DHT22;21084;51.098;14.506;2024-03-06T01:17:07;1.80;99.90
34873;DHT22;21084;51.098;14.506;2024-03-06T01:19:35;1.80;99.90
34873;DHT22;21084;51.098;14.506;2024-03-06T01:22:03;1.70;99.90
34873;DHT22;21084;51.098;14.506;2024-03-06T01:24:32;1.60;99.90
34873;DHT22;21084;51.098;14.506;2024-03-06T01:27:01;1.50;99.90
34873;DHT22;21084;51.098;14.506;2024-03-06T01:29:30;1.40;99.90
34873;DHT22;21084;51.098;14.506;2024-03-06T01:31:59;1.30;99.90
34873;DHT22;21084;51.098;14.506;2024-03-06T01:34:27;1.30;99.90
34873;DHT22;21084;51.098;14.506;2024-03-06T01:36:55;1.30;99.90
34873;DHT22;21084;51.098;14.506;2024-03-06T01:39:23;1.30;99.90
34873;DHT22;21084;51.098;14.506;2024-03-06T01:41:52;1.10;99.90
34873;DHT22;21084;51.098;14.506;2024-03-06T01:44:21;1.00;99.90
34873;DHT22;21084;51.098;14.506;2024-03-06T01:46:50;0.90;99.90
34873;DHT22;21084;51.098;14.506;2024-03-06T01:49:18;0.80;99.90
34873;DHT22;21084;51.098;14.506;2024-03-06T01:51:58;0.70;99.90
34873;DHT22;21084;51.098;14.506;2024-03-06T01:54:27;0.60;99.90
34873;DHT22;21084;51.098;14.506;2024-03-06T01:56:55;0.50;99.90
34873;DHT22;21084;51.098;14.506;2024-03-06T01:59:25;0.50;99.90
34873;DHT22;21084;51.098;14.506;2024-03-06T02:02:03;0.50;99.90
34873;DHT22;21084;51.098;14.506;2024-03-06T02:04:32;0.60;99.90
34873;DHT22;21084;51.098;14.506;2024-03-06T02:07:00;0.70;99.90
34873;DHT22;21084;51.098;14.506;2024-03-06T02:09:29;0.70;99.90
34873;DHT22;21084;51.098;14.506;2024-03-06T02:11:57;0.80;99.90
34873;DHT22;21084;51.098;14.506;2024-03-06T02:14:27;0.90;99.90
34873;DHT22;21084;51.098;14.506;2024-03-06T02:16:56;0.90;99.90
34873;DHT22;21084;51.098;14.506;2024-03-06T02:19:25;1.00;99.90
34873;DHT22;21084;51.098;14.506;2024-03-06T02:22:05;1.10;99.90
34873;DHT22;21084;51.098;14.506;2024-03-06T02:24:34;1.20;99.90
34873;DHT22;21084;51.098;14.506;2024-03-06T02:27:02;1.30;99.90
34873;DHT22;21084;51.098;14.506;2024-03-06T02:29:32;1.30;99.90
34873;DHT22;21084;51.098;14.506;2024-03-06T02:32:00;1.40;99.90
34873;DHT22;21084;51.098;14.506;2024-03-06T02:34:30;1.40;99.90
34873;DHT22;21084;51.098;14.506;2024-03-06T02:36:59;1.50;99.90
34873;DHT22;21084;51.098;14.506;2024-03-06T02:39:28;1.50;99.90
34873;DHT22;21084;51.098;14.506;2024-03-06T02:41:57;1.60;99.90
34873;DHT22;21084;51.098;14.506;2024-03-06T02:44:25;1.60;99.90
34873;DHT22;21084;51.098;14.506;2024-03-06T02:46:53;1.70;99.90
34873;DHT22;21084;51.098;14.506;2024-03-06T02:49:22;1.70;99.90
34873;DHT22;21084;51.098;14.506;2024-03-06T02:51:50;1.70;99.90
34873;DHT22;21084;51.098;14.506;2024-03-06T02:54:18;1.80;99.90
34873;DHT22;21084;51.098;14.506;2024-03-06T02:56:48;1.80;99.90
34873;DHT22;21084;51.098;14.506;2024-03-06T02:59:19;1.80;99.90
34873;DHT22;21084;51.098;14.506;2024-03-06T03:01:47;1.90;99.90
34873;DHT22;21084;51.098;14.506;2024-03-06T03:04:15;1.90;99.90
34873;DHT22;21084;51.098;14.506;2024-03-06T03:06:44;1.90;99.90
34873;DHT22;21084;51.098;14.506;2024-03-06T03:09:12;1.90;99.90
34873;DHT22;21084;51.098;14.506;2024-03-06T03:11:41;1.90;99.90
34873;DHT22;21084;51.098;14.506;2024-03-06T03:14:11;1.90;99.90
34873;DHT22;21084;51.098;14.506;2024-03-06T03:16:39;2.00;99.90
34873;DHT22;21084;51.098;14.506;2024-03-06T03:19:08;2.00;99.90
34873;DHT22;21084;51.098;14.506;2024-03-06T03:21:36;2.00;99.90
34873;DHT22;21084;51.098;14.506;2024-03-06T03:24:06;2.00;99.90
34873;DHT22;21084;51.098;14.506;2024-03-06T03:26:34;2.10;99.90
34873;DHT22;21084;51.098;14.506;2024-03-06T03:29:03;2.10;99.90
34873;DHT22;21084;51.098;14.506;2024-03-06T03:31:33;2.00;99.90
34873;DHT22;21084;51.098;14.506;2024-03-06T03:34:03;2.00;99.90
34873;DHT22;21084;51.098;14.506;2024-03-06T03:36:31;1.90;99.90
34873;DHT22;21084;51.098;14.506;2024-03-06T03:39:00;1.80;99.90
34873;DHT22;21084;51.098;14.506;2024-03-06T03:41:29;1.70;99.90
34873;DHT22;21084;51.098;14.506;2024-03-06T03:43:57;1.60;99.90
34873;DHT22;21084;51.098;14.506;2024-03-06T03:46:26;1.50;99.90
34873;DHT22;21084;51.098;14.506;2024-03-06T03:48:55;1.30;99.90
34873;DHT22;21084;51.098;14.506;2024-03-06T03:51:24;1.20;99.90
34873;DHT22;21084;51.098;14.506;2024-03-06T03:53:52;1.10;99.90
34873;DHT22;21084;51.098;14.506;2024-03-06T03:56:20;0.90;99.90
34873;DHT22;21084;51.098;14.506;2024-03-06T03:58:48;0.70;99.90
34873;DHT22;21084;51.098;14.506;2024-03-06T04:01:16;0.60;99.90
34873;DHT22;21084;51.098;14.506;2024-03-06T04:03:45;0.40;99.90
34873;DHT22;21084;51.098;14.506;2024-03-06T04:06:14;0.30;99.90
34873;DHT22;21084;51.098;14.506;2024-03-06T04:08:43;0.10;99.90
34873;DHT22;21084;51.098;14.506;2024-03-06T04:11:11;0.00;99.90
34873;DHT22;21084;51.098;14.506;2024-03-06T04:13:40;-0.10;99.90
34873;DHT22;21084;51.098;14.506;2024-03-06T04:16:08;-0.20;99.90
34873;DHT22;21084;51.098;14.506;2024-03-06T04:18:36;-0.30;99.90
34873;DHT22;21084;51.098;14.506;2024-03-06T04:21:05;-0.30;99.90
34873;DHT22;21084;51.098;14.506;2024-03-06T04:23:34;-0.40;99.90
34873;DHT22;21084;51.098;14.506;2024-03-06T04:26:03;-0.50;99.90
34873;DHT22;21084;51.098;14.506;2024-03-06T04:28:33;-0.50;99.90
34873;DHT22;21084;51.098;14.506;2024-03-06T04:31:01;-0.60;99.90
34873;DHT22;21084;51.098;14.506;2024-03-06T04:33:29;-0.70;99.90
34873;DHT22;21084;51.098;14.506;2024-03-06T04:35:57;-0.80;99.90
34873;DHT22;21084;51.098;14.506;2024-03-06T04:38:25;-0.80;99.90
34873;DHT22;21084;51.098;14.506;2024-03-06T04:40:55;-0.90;99.90
34873;DHT22;21084;51.098;14.506;2024-03-06T04:43:23;-0.90;99.90
34873;DHT22;21084;51.098;14.506;2024-03-06T04:45:52;-1.00;99.90
34873;DHT22;21084;51.098;14.506;2024-03-06T04:48:20;-1.10;99.90
34873;DHT22;21084;51.098;14.506;2024-03-06T04:50:48;-1.20;99.90
34873;DHT22;21084;51.098;14.506;2024-03-06T04:53:17;-1.30;99.90
34873;DHT22;21084;51.098;14.506;2024-03-06T04:55:46;-1.30;99.90
34873;DHT22;21084;51.098;14.506;2024-03-06T04:58:16;-1.40;99.90
34873;DHT22;21084;51.098;14.506;2024-03-06T05:00:44;-1.40;99.90
34873;DHT22;21084;51.098;14.506;2024-03-06T05:03:13;-1.40;99.90
34873;DHT22;21084;51.098;14.506;2024-03-06T05:05:59;-1.40;99.90
34873;DHT22;21084;51.098;14.506;2024-03-06T05:08:45;-1.50;99.90
34873;DHT22;21084;51.098;14.506;2024-03-06T05:11:30;-1.50;99.90
34873;DHT22;21084;51.098;14.506;2024-03-06T05:14:18;-1.50;99.90
34873;DHT22;21084;51.098;14.506;2024-03-06T05:17:04;-1.60;99.90
34873;DHT22;21084;51.098;14.506;2024-03-06T05:19:50;-1.60;99.90
34873;DHT22;21084;51.098;14.506;2024-03-06T05:22:36;-1.70;99.90
34873;DHT22;21084;51.098;14.506;2024-03-06T05:25:22;-1.80;99.90
34873;DHT22;21084;51.098;14.506;2024-03-06T05:28:08;-1.90;99.90
34873;DHT22;21084;51.098;14.506;2024-03-06T05:30:56;-1.90;99.90
34873;DHT22;21084;51.098;14.506;2024-03-06T05:33:42;-1.90;99.90
34873;DHT22;21084;51.098;14.506;2024-03-06T05:36:27;-1.90;99.90
34873;DHT22;21084;51.098;14.506;2024-03-06T05:39:13;-1.90;99.90
34873;DHT22;21084;51.098;14.506;2024-03-06T05:42:02;-1.90;99.90
34873;DHT22;21084;51.098;14.506;2024-03-06T05:44:48;-1.90;99.90
34873;DHT22;21084;51.098;14.506;2024-03-06T05:47:36;-1.90;99.90
34873;DHT22;21084;51.098;14.506;2024-03-06T05:50:22;-1.90;99.90
34873;DHT22;21084;51.098;14.506;2024-03-06T05:53:08;-1.80;99.90
34873;DHT22;21084;51.098;14.506;2024-03-06T05:55:56;-1.80;99.90
34873;DHT22;21084;51.098;14.506;2024-03-06T05:58:41;-1.80;99.90
34873;DHT22;21084;51.098;14.506;2024-03-06T06:01:14;-1.90;99.90
34873;DHT22;21084;51.098;14.506;2024-03-06T06:03:47;-1.90;99.90
34873;DHT22;21084;51.098;14.506;2024-03-06T06:06:15;-1.90;99.90
34873;DHT22;21084;51.098;14.506;2024-03-06T06:08:44;-1.90;99.90
34873;DHT22;21084;51.098;14.506;2024-03-06T06:11:12;-1.70;99.90
34873;DHT22;21084;51.098;14.506;2024-03-06T06:13:40;-1.60;99.90
34873;DHT22;21084;51.098;14.506;2024-03-06T06:16:09;-1.60;99.90
34873;DHT22;21084;51.098;14.506;2024-03-06T06:18:37;-1.50;99.90
34873;DHT22;21084;51.098;14.506;2024-03-06T06:21:07;-1.40;99.90
34873;DHT22;21084;51.098;14.506;2024-03-06T06:23:35;-1.40;99.90
34873;DHT22;21084;51.098;14.506;2024-03-06T06:26:04;-1.30;99.90
34873;DHT22;21084;51.098;14.506;2024-03-06T06:28:33;-1.20;99.90
34873;DHT22;21084;51.098;14.506;2024-03-06T06:31:01;-1.00;99.90
34873;DHT22;21084;51.098;14.506;2024-03-06T06:33:31;-0.90;99.90
34873;DHT22;21084;51.098;14.506;2024-03-06T06:35:59;-0.80;99.90
34873;DHT22;21084;51.098;14.506;2024-03-06T06:38:28;-0.60;99.90
34873;DHT22;21084;51.098;14.506;2024-03-06T06:40:57;-0.50;99.90
34873;DHT22;21084;51.098;14.506;2024-03-06T06:43:25;-0.40;99.90
34873;DHT22;21084;51.098;14.506;2024-03-06T06:45:54;-0.30;99.90
34873;DHT22;21084;51.098;14.506;2024-03-06T06:48:25;-0.30;99.90
34873;DHT22;21084;51.098;14.506;2024-03-06T06:50:54;-0.20;99.90
34873;DHT22;21084;51.098;14.506;2024-03-06T06:53:22;-0.10;99.90
34873;DHT22;21084;51.098;14.506;2024-03-06T06:55:51;-0.10;99.90
34873;DHT22;21084;51.098;14.506;2024-03-06T06:58:20;-0.10;99.90
34873;DHT22;21084;51.098;14.506;2024-03-06T07:00:48;0.10;99.90
34873;DHT22;21084;51.098;14.506;2024-03-06T07:03:16;0.10;99.90
34873;DHT22;21084;51.098;14.506;2024-03-06T07:05:45;0.20;99.90
34873;DHT22;21084;51.098;14.506;2024-03-06T07:08:13;0.30;99.90
34873;DHT22;21084;51.098;14.506;2024-03-06T07:10:41;0.50;99.90
34873;DHT22;21084;51.098;14.506;2024-03-06T07:13:11;0.60;99.90
34873;DHT22;21084;51.098;14.506;2024-03-06T07:16:04;0.60;99.90
34873;DHT22;21084;51.098;14.506;2024-03-06T07:18:32;0.70;99.90
34873;DHT22;21084;51.098;14.506;2024-03-06T07:21:02;0.80;99.90
34873;DHT22;21084;51.098;14.506;2024-03-06T07:23:30;0.90;99.90
34873;DHT22;21084;51.098;14.506;2024-03-06T07:25:58;0.90;99.90
34873;DHT22;21084;51.098;14.506;2024-03-06T07:28:28;0.90;99.90
34873;DHT22;21084;51.098;14.506;2024-03-06T07:30:56;1.10;99.90
34873;DHT22;21084;51.098;14.506;2024-03-06T07:33:25;1.10;99.90
34873;DHT22;21084;51.098;14.506;2024-03-06T07:35:53;1.30;99.90
34873;DHT22;21084;51.098;14.506;2024-03-06T07:38:22;1.40;99.90
34873;DHT22;21084;51.098;14.506;2024-03-06T07:40:50;1.50;99.90
34873;DHT22;21084;51.098;14.506;2024-03-06T07:43:18;1.60;99.90
34873;DHT22;21084;51.098;14.506;2024-03-06T07:45:48;1.60;99.90
34873;DHT22;21084;51.098;14.506;2024-03-06T07:48:16;1.60;99.90
34873;DHT22;21084;51.098;14.506;2024-03-06T07:50:45;1.50;99.90
34873;DHT22;21084;51.098;14.506;2024-03-06T07:53:13;1.40;99.90
34873;DHT22;21084;51.098;14.506;2024-03-06T07:55:43;1.70;99.90
34873;DHT22;21084;51.098;14.506;2024-03-06T07:58:11;2.00;99.90
34873;DHT22;21084;51.098;14.506;2024-03-06T08:00:40;2.20;99.90
34873;DHT22;21084;51.098;14.506;2024-03-06T08:03:10;2.50;99.90
34873;DHT22;21084;51.098;14.506;2024-03-06T08:05:40;2.70;99.90
34873;DHT22;21084;51.098;14.506;2024-03-06T08:08:10;3.00;99.90
34873;DHT22;21084;51.098;14.506;2024-03-06T08:10:38;3.10;99.90
34873;DHT22;21084;51.098;14.506;2024-03-06T08:13:06;3.20;99.90
34873;DHT22;21084;51.098;14.506;2024-03-06T08:15:35;3.40;99.90
34873;DHT22;21084;51.098;14.506;2024-03-06T08:18:03;3.70;99.90
34873;DHT22;21084;51.098;14.506;2024-03-06T08:20:33;3.90;99.90
34873;DHT22;21084;51.098;14.506;2024-03-06T08:23:01;4.00;99.90
34873;DHT22;21084;51.098;14.506;2024-03-06T08:25:29;4.30;99.90
34873;DHT22;21084;51.098;14.506;2024-03-06T08:27:59;4.50;99.90
34873;DHT22;21084;51.098;14.506;2024-03-06T08:30:30;4.70;99.90
34873;DHT22;21084;51.098;14.506;2024-03-06T08:32:58;4.70;99.90
34873;DHT22;21084;51.098;14.506;2024-03-06T08:35:28;4.90;99.90
34873;DHT22;21084;51.098;14.506;2024-03-06T08:37:57;5.20;99.90
34873;DHT22;21084;51.098;14.506;2024-03-06T08:40:26;5.30;99.90
34873;DHT22;21084;51.098;14.506;2024-03-06T08:42:54;5.10;99.90
34873;DHT22;21084;51.098;14.506;2024-03-06T08:45:23;5.10;99.90
34873;DHT22;21084;51.098;14.506;2024-03-06T08:47:51;5.00;99.90
34873;DHT22;21084;51.098;14.506;2024-03-06T08:50:21;4.80;99.90
34873;DHT22;21084;51.098;14.506;2024-03-06T08:52:50;4.90;99.90
34873;DHT22;21084;51.098;14.506;2024-03-06T08:55:20;5.00;99.90
34873;DHT22;21084;51.098;14.506;2024-03-06T08:57:48;4.80;99.90
34873;DHT22;21084;51.098;14.506;2024-03-06T09:00:19;5.00;99.90
34873;DHT22;21084;51.098;14.506;2024-03-06T09:02:47;4.90;99.90
34873;DHT22;21084;51.098;14.506;2024-03-06T09:05:16;4.60;99.90
34873;DHT22;21084;51.098;14.506;2024-03-06T09:07:45;4.30;99.90
34873;DHT22;21084;51.098;14.506;2024-03-06T09:10:13;4.20;99.90
34873;DHT22;21084;51.098;14.506;2024-03-06T09:12:43;4.20;99.90
34873;DHT22;21084;51.098;14.506;2024-03-06T09:15:11;4.40;99.90
34873;DHT22;21084;51.098;14.506;2024-03-06T09:17:40;4.50;99.90
34873;DHT22;21084;51.098;14.506;2024-03-06T09:20:09;4.70;99.90
34873;DHT22;21084;51.098;14.506;2024-03-06T09:22:39;5.10;99.90
34873;DHT22;21084;51.098;14.506;2024-03-06T09:25:08;5.50;99.90
34873;DHT22;21084;51.098;14.506;2024-03-06T09:27:37;6.00;99.90
34873;DHT22;21084;51.098;14.506;2024-03-06T09:30:07;6.40;99.90
34873;DHT22;21084;51.098;14.506;2024-03-06T09:32:37;6.70;99.90
34873;DHT22;21084;51.098;14.506;2024-03-06T09:35:06;7.20;99.90
34873;DHT22;21084;51.098;14.506;2024-03-06T09:37:34;7.40;99.90
34873;DHT22;21084;51.098;14.506;2024-03-06T09:40:03;7.50;99.90
34873;DHT22;21084;51.098;14.506;2024-03-06T09:42:31;7.60;99.90
34873;DHT22;21084;51.098;14.506;2024-03-06T09:45:00;7.60;99.90
34873;DHT22;21084;51.098;14.506;2024-03-06T09:47:29;7.70;99.90
34873;DHT22;21084;51.098;14.506;2024-03-06T09:50:00;7.80;99.90
34873;DHT22;21084;51.098;14.506;2024-03-06T09:52:33;7.60;99.90
34873;DHT22;21084;51.098;14.506;2024-03-06T09:55:03;7.70;99.90
34873;DHT22;21084;51.098;14.506;2024-03-06T09:57:36;7.70;99.90
34873;DHT22;21084;51.098;14.506;2024-03-06T10:00:06;7.50;99.90
34873;DHT22;21084;51.098;14.506;2024-03-06T10:02:36;7.60;99.90
34873;DHT22;21084;51.098;14.506;2024-03-06T10:05:18;7.90;99.90
34873;DHT22;21084;51.098;14.506;2024-03-06T10:07:48;7.60;99.90
34873;DHT22;21084;51.098;14.506;2024-03-06T10:10:18;7.80;99.90
34873;DHT22;21084;51.098;14.506;2024-03-06T10:12:47;7.80;99.90
34873;DHT22;21084;51.098;14.506;2024-03-06T10:15:16;7.80;99.90
34873;DHT22;21084;51.098;14.506;2024-03-06T10:17:46;7.80;99.90
34873;DHT22;21084;51.098;14.506;2024-03-06T10:20:16;7.60;99.90
34873;DHT22;21084;51.098;14.506;2024-03-06T10:22:50;7.40;99.90
34873;DHT22;21084;51.098;14.506;2024-03-06T10:25:25;7.30;99.90
34873;DHT22;21084;51.098;14.506;2024-03-06T10:28:03;7.00;99.90
34873;DHT22;21084;51.098;14.506;2024-03-06T10:30:32;7.00;99.90
34873;DHT22;21084;51.098;14.506;2024-03-06T10:33:04;6.90;99.90
34873;DHT22;21084;51.098;14.506;2024-03-06T10:35:33;6.90;99.90
34873;DHT22;21084;51.098;14.506;2024-03-06T10:38:01;6.80;99.90
34873;DHT22;21084;51.098;14.506;2024-03-06T10:40:30;6.80;99.90
34873;DHT22;21084;51.098;14.506;2024-03-06T10:43:00;6.80;99.90
34873;DHT22;21084;51.098;14.506;2024-03-06T10:45:31;6.60;99.90
34873;DHT22;21084;51.098;14.506;2024-03-06T10:48:01;6.50;99.90
34873;DHT22;21084;51.098;14.506;2024-03-06T10:50:32;6.60;99.90
34873;DHT22;21084;51.098;14.506;2024-03-06T10:53:00;6.50;99.90
34873;DHT22;21084;51.098;14.506;2024-03-06T10:55:30;6.50;99.90
34873;DHT22;21084;51.098;14.506;2024-03-06T10:58:01;6.60;99.90
34873;DHT22;21084;51.098;14.506;2024-03-06T11:00:30;6.60;99.90
34873;DHT22;21084;51.098;14.506;2024-03-06T11:03:00;6.70;99.90
34873;DHT22;21084;51.098;14.506;2024-03-06T11:05:35;6.80;99.90
34873;DHT22;21084;51.098;14.506;2024-03-06T11:08:06;6.90;99.90
34873;DHT22;21084;51.098;14.506;2024-03-06T11:10:36;7.00;99.90
34873;DHT22;21084;51.098;14.506;2024-03-06T11:13:08;7.00;99.90
34873;DHT22;21084;51.098;14.506;2024-03-06T11:15:37;6.90;99.90
34873;DHT22;21084;51.098;14.506;2024-03-06T11:20:49;7.10;99.90
34873;DHT22;21084;51.098;14.506;2024-03-06T11:23:18;7.10;99.90
34873;DHT22;21084;51.098;14.506;2024-03-06T11:25:56;7.30;99.90
34873;DHT22;21084;51.098;14.506;2024-03-06T11:28:26;7.30;99.90
34873;DHT22;21084;51.098;14.506;2024-03-06T11:30:55;7.40;99.90
34873;DHT22;21084;51.098;14.506;2024-03-06T11:33:28;7.60;99.90
34873;DHT22;21084;51.098;14.506;2024-03-06T11:36:17;7.60;99.90
34873;DHT22;21084;51.098;14.506;2024-03-06T11:38:46;7.60;99.90
34873;DHT22;21084;51.098;14.506;2024-03-06T11:41:14;7.50;99.90
34873;DHT22;21084;51.098;14.506;2024-03-06T11:43:45;7.50;99.90
34873;DHT22;21084;51.098;14.506;2024-03-06T11:46:14;7.40;99.90
34873;DHT22;21084;51.098;14.506;2024-03-06T11:48:42;7.30;99.90
34873;DHT22;21084;51.098;14.506;2024-03-06T11:51:12;7.20;99.90
34873;DHT22;21084;51.098;14.506;2024-03-06T11:53:42;7.10;99.90
34873;DHT22;21084;51.098;14.506;2024-03-06T11:56:12;6.90;99.90
34873;DHT22;21084;51.098;14.506;2024-03-06T11:58:40;6.80;99.90
34873;DHT22;21084;51.098;14.506;2024-03-06T12:01:08;6.80;99.90
34873;DHT22;21084;51.098;14.506;2024-03-06T12:03:36;6.70;99.90
34873;DHT22;21084;51.098;14.506;2024-03-06T12:06:05;6.60;99.90
34873;DHT22;21084;51.098;14.506;2024-03-06T12:08:34;6.40;99.90
34873;DHT22;21084;51.098;14.506;2024-03-06T12:11:05;6.20;99.90
34873;DHT22;21084;51.098;14.506;2024-03-06T12:13:34;6.20;99.90
34873;DHT22;21084;51.098;14.506;2024-03-06T12:16:04;6.10;99.90
34873;DHT22;21084;51.098;14.506;2024-03-06T12:18:33;5.90;99.90
34873;DHT22;21084;51.098;14.506;2024-03-06T12:21:01;6.00;99.90
34873;DHT22;21084;51.098;14.506;2024-03-06T12:23:30;6.10;99.90
34873;DHT22;21084;51.098;14.506;2024-03-06T12:26:03;6.00;99.90
34873;DHT22;21084;51.098;14.506;2024-03-06T12:28:34;5.80;99.90
34873;DHT22;21084;51.098;14.506;2024-03-06T12:31:03;5.70;99.90
34873;DHT22;21084;51.098;14.506;2024-03-06T12:33:31;5.80;99.90
34873;DHT22;21084;51.098;14.506;2024-03-06T12:36:02;5.70;99.90
34873;DHT22;21084;51.098;14.506;2024-03-06T12:38:30;5.70;99.90
34873;DHT22;21084;51.098;14.506;2024-03-06T12:40:59;5.80;99.90
34873;DHT22;21084;51.098;14.506;2024-03-06T12:43:27;5.90;99.90
34873;DHT22;21084;51.098;14.506;2024-03-06T12:45:58;6.10;99.90
34873;DHT22;21084;51.098;14.506;2024-03-06T12:48:31;6.20;99.90
34873;DHT22;21084;51.098;14.506;2024-03-06T12:51:01;6.30;99.90
34873;DHT22;21084;51.098;14.506;2024-03-06T12:53:32;6.30;99.90
34873;DHT22;21084;51.098;14.506;2024-03-06T12:56:02;6.50;99.90
34873;DHT22;21084;51.098;14.506;2024-03-06T12:58:31;6.60;99.90
34873;DHT22;21084;51.098;14.506;2024-03-06T13:01:00;6.60;99.90
34873;DHT22;21084;51.098;14.506;2024-03-06T13:03:28;6.70;99.90
34873;DHT22;21084;51.098;14.506;2024-03-06T13:05:57;7.00;99.90
34873;DHT22;21084;51.098;14.506;2024-03-06T13:08:25;7.10;99.90
34873;DHT22;21084;51.098;14.506;2024-03-06T13:10:54;7.40;99.90
34873;DHT22;21084;51.098;14.506;2024-03-06T13:13:23;7.80;99.90
34873;DHT22;21084;51.098;14.506;2024-03-06T13:15:51;8.00;99.90
34873;DHT22;21084;51.098;14.506;2024-03-06T13:18:21;8.20;99.90
34873;DHT22;21084;51.098;14.506;2024-03-06T13:20:49;8.20;99.90
34873;DHT22;21084;51.098;14.506;2024-03-06T13:23:18;8.30;99.90
34873;DHT22;21084;51.098;14.506;2024-03-06T13:25:46;9.00;99.90
34873;DHT22;21084;51.098;14.506;2024-03-06T13:28:14;9.20;99.90
34873;DHT22;21084;51.098;14.506;2024-03-06T13:30:42;9.00;99.00
34873;DHT22;21084;51.098;14.506;2024-03-06T13:33:11;8.70;99.60
34873;DHT22;21084;51.098;14.506;2024-03-06T13:35:40;8.30;99.70
34873;DHT22;21084;51.098;14.506;2024-03-06T13:38:09;7.80;99.90
34873;DHT22;21084;51.098;14.506;2024-03-06T13:40:37;7.50;99.90
34873;DHT22;21084;51.098;14.506;2024-03-06T13:43:06;7.40;99.90
34873;DHT22;21084;51.098;14.506;2024-03-06T13:45:35;8.10;99.90
34873;DHT22;21084;51.098;14.506;2024-03-06T13:48:04;8.50;99.90
34873;DHT22;21084;51.098;14.506;2024-03-06T13:50:44;8.70;99.90
34873;DHT22;21084;51.098;14.506;2024-03-06T13:53:12;8.60;99.90
34873;DHT22;21084;51.098;14.506;2024-03-06T13:55:40;8.80;99.90
34873;DHT22;21084;51.098;14.506;2024-03-06T13:58:09;8.80;99.90
34873;DHT22;21084;51.098;14.506;2024-03-06T14:00:37;9.20;99.90
34873;DHT22;21084;51.098;14.506;2024-03-06T14:03:05;9.60;99.40
34873;DHT22;21084;51.098;14.506;2024-03-06T14:05:33;9.70;98.00
34873;DHT22;21084;51.098;14.506;2024-03-06T14:08:03;9.40;97.40
34873;DHT22;21084;51.098;14.506;2024-03-06T14:10:31;9.30;97.80
34873;DHT22;21084;51.098;14.506;2024-03-06T14:13:00;9.80;98.40
34873;DHT22;21084;51.098;14.506;2024-03-06T14:15:28;10.30;96.70
34873;DHT22;21084;51.098;14.506;2024-03-06T14:17:57;10.10;95.80
34873;DHT22;21084;51.098;14.506;2024-03-06T14:20:25;10.10;95.20
34873;DHT22;21084;51.098;14.506;2024-03-06T14:22:53;9.90;95.70
34873;DHT22;21084;51.098;14.506;2024-03-06T14:25:23;9.40;96.00
34873;DHT22;21084;51.098;14.506;2024-03-06T14:27:51;8.80;96.40
34873;DHT22;21084;51.098;14.506;2024-03-06T14:30:19;8.60;96.80
34873;DHT22;21084;51.098;14.506;2024-03-06T14:32:48;8.30;97.20
34873;DHT22;21084;51.098;14.506;2024-03-06T14:35:16;8.00;99.00
34873;DHT22;21084;51.098;14.506;2024-03-06T14:37:45;7.90;98.40
34873;DHT22;21084;51.098;14.506;2024-03-06T14:40:13;7.90;99.50
34873;DHT22;21084;51.098;14.506;2024-03-06T14:42:43;8.30;99.90
34873;DHT22;21084;51.098;14.506;2024-03-06T14:45:11;8.60;99.30
34873;DHT22;21084;51.098;14.506;2024-03-06T14:47:39;8.50;99.00
34873;DHT22;21084;51.098;14.506;2024-03-06T14:50:08;8.40;97.90
34873;DHT22;21084;51.098;14.506;2024-03-06T14:52:36;8.10;98.30
34873;DHT22;21084;51.098;14.506;2024-03-06T14:55:05;7.60;98.30
34873;DHT22;21084;51.098;14.506;2024-03-06T14:57:36;7.30;99.00
34873;DHT22;21084;51.098;14.506;2024-03-06T15:00:06;7.20;99.90
34873;DHT22;21084;51.098;14.506;2024-03-06T15:02:35;7.30;99.90
34873;DHT22;21084;51.098;14.506;2024-03-06T15:05:05;7.10;99.90
34873;DHT22;21084;51.098;14.506;2024-03-06T15:07:34;7.00;99.90
34873;DHT22;21084;51.098;14.506;2024-03-06T15:10:02;7.00;99.90
34873;DHT22;21084;51.098;14.506;2024-03-06T15:12:30;7.00;99.90
34873;DHT22;21084;51.098;14.506;2024-03-06T15:14:59;7.10;99.90
34873;DHT22;21084;51.098;14.506;2024-03-06T15:17:29;7.50;99.90
34873;DHT22;21084;51.098;14.506;2024-03-06T15:19:58;7.80;99.90
34873;DHT22;21084;51.098;14.506;2024-03-06T15:22:27;8.10;99.90
34873;DHT22;21084;51.098;14.506;2024-03-06T15:24:55;8.20;99.40
34873;DHT22;21084;51.098;14.506;2024-03-06T15:27:24;8.30;98.40
34873;DHT22;21084;51.098;14.506;2024-03-06T15:29:52;8.30;98.00
34873;DHT22;21084;51.098;14.506;2024-03-06T15:32:20;8.00;98.10
34873;DHT22;21084;51.098;14.506;2024-03-06T15:34:50;7.80;98.40
34873;DHT22;21084;51.098;14.506;2024-03-06T15:37:23;7.60;98.10
34873;DHT22;21084;51.098;14.506;2024-03-06T15:39:52;7.30;98.80
34873;DHT22;21084;51.098;14.506;2024-03-06T15:42:20;7.10;99.60
34873;DHT22;21084;51.098;14.506;2024-03-06T15:44:49;7.00;99.70
34873;DHT22;21084;51.098;14.506;2024-03-06T15:47:18;6.90;99.90